sensor_id;sensor_type;location;lat;lon;timestamp;P1;durP1;ratioP1;P2;durP2;ratioP2
735;SDS011;352;48.626;9.238;2022-12-29T00:00:19;5.72;;;3.20;;
735;SDS011;352;48.626;9.238;2022-12-29T00:02:49;3.30;;;3.00;;
735;SDS011;352;48.626;9.238;2022-12-29T00:05:16;3.35;;;3.10;;
735;SDS011;352;48.626;9.238;2022-12-29T00:07:44;3.50;;;3.20;;
735;SDS011;352;48.626;9.238;2022-12-29T00:10:11;3.85;;;3.17;;
735;SDS011;352;48.626;9.238;2022-12-29T00:12:41;3.72;;;3.33;;
735;SDS011;352;48.626;9.238;2022-12-29T00:15:26;3.28;;;2.95;;
735;SDS011;352;48.626;9.238;2022-12-29T00:18:07;3.00;;;2.80;;
735;SDS011;352;48.626;9.238;2022-12-29T00:20:34;4.15;;;3.78;;
735;SDS011;352;48.626;9.238;2022-12-29T00:23:21;4.60;;;3.50;;
735;SDS011;352;48.626;9.238;2022-12-29T00:26:12;4.30;;;3.53;;
735;SDS011;352;48.626;9.238;2022-12-29T00:29:00;3.42;;;3.15;;
735;SDS011;352;48.626;9.238;2022-12-29T00:31:44;4.82;;;4.32;;
735;SDS011;352;48.626;9.238;2022-12-29T00:34:28;4.05;;;3.60;;
735;SDS011;352;48.626;9.238;2022-12-29T00:37:13;4.57;;;3.47;;
735;SDS011;352;48.626;9.238;2022-12-29T00:39:41;5.00;;;3.60;;
735;SDS011;352;48.626;9.238;2022-12-29T00:42:25;4.50;;;3.10;;
735;SDS011;352;48.626;9.238;2022-12-29T00:45:09;4.68;;;3.35;;
735;SDS011;352;48.626;9.238;2022-12-29T00:47:36;4.18;;;3.88;;
735;SDS011;352;48.626;9.238;2022-12-29T00:50:06;3.30;;;3.00;;
735;SDS011;352;48.626;9.238;2022-12-29T00:52:32;3.72;;;2.90;;
735;SDS011;352;48.626;9.238;2022-12-29T00:55:00;3.70;;;3.40;;
735;SDS011;352;48.626;9.238;2022-12-29T00:57:27;4.65;;;3.13;;
735;SDS011;352;48.626;9.238;2022-12-29T00:59:56;3.08;;;2.78;;
735;SDS011;352;48.626;9.238;2022-12-29T01:02:23;4.50;;;3.60;;
735;SDS011;352;48.626;9.238;2022-12-29T01:04:49;3.70;;;2.95;;
735;SDS011;352;48.626;9.238;2022-12-29T01:07:17;2.83;;;2.63;;
735;SDS011;352;48.626;9.238;2022-12-29T01:09:46;5.18;;;2.40;;
735;SDS011;352;48.626;9.238;2022-12-29T01:12:33;3.00;;;2.25;;
735;SDS011;352;48.626;9.238;2022-12-29T01:15:06;2.97;;;2.45;;
735;SDS011;352;48.626;9.238;2022-12-29T01:17:34;3.78;;;2.88;;
735;SDS011;352;48.626;9.238;2022-12-29T01:20:04;3.15;;;2.42;;
735;SDS011;352;48.626;9.238;2022-12-29T01:22:32;3.13;;;2.63;;
735;SDS011;352;48.626;9.238;2022-12-29T01:24:59;2.90;;;2.70;;
735;SDS011;352;48.626;9.238;2022-12-29T01:27:26;2.08;;;1.92;;
735;SDS011;352;48.626;9.238;2022-12-29T01:29:56;2.70;;;2.50;;
735;SDS011;352;48.626;9.238;2022-12-29T01:32:28;2.50;;;2.30;;
735;SDS011;352;48.626;9.238;2022-12-29T01:34:55;2.47;;;2.30;;
735;SDS011;352;48.626;9.238;2022-12-29T01:37:22;3.40;;;2.67;;
735;SDS011;352;48.626;9.238;2022-12-29T01:39:48;2.13;;;1.90;;
735;SDS011;352;48.626;9.238;2022-12-29T01:42:19;2.20;;;2.10;;
735;SDS011;352;48.626;9.238;2022-12-29T01:44:55;2.65;;;2.42;;
735;SDS011;352;48.626;9.238;2022-12-29T01:47:28;2.92;;;2.38;;
735;SDS011;352;48.626;9.238;2022-12-29T01:50:01;3.03;;;2.25;;
735;SDS011;352;48.626;9.238;2022-12-29T01:52:38;3.50;;;2.67;;
735;SDS011;352;48.626;9.238;2022-12-29T01:55:11;2.47;;;2.28;;
735;SDS011;352;48.626;9.238;2022-12-29T01:57:40;4.03;;;2.22;;
735;SDS011;352;48.626;9.238;2022-12-29T02:00:14;2.80;;;2.50;;
735;SDS011;352;48.626;9.238;2022-12-29T02:02:41;2.25;;;2.05;;
735;SDS011;352;48.626;9.238;2022-12-29T02:05:11;2.33;;;1.98;;
735;SDS011;352;48.626;9.238;2022-12-29T02:07:44;2.40;;;2.20;;
735;SDS011;352;48.626;9.238;2022-12-29T02:10:12;4.55;;;2.50;;
735;SDS011;352;48.626;9.238;2022-12-29T02:12:40;2.30;;;2.20;;
735;SDS011;352;48.626;9.238;2022-12-29T02:15:07;2.67;;;2.30;;
735;SDS011;352;48.626;9.238;2022-12-29T02:17:49;4.35;;;2.22;;
735;SDS011;352;48.626;9.238;2022-12-29T02:20:32;1.90;;;1.80;;
735;SDS011;352;48.626;9.238;2022-12-29T02:29:21;1.70;;;1.60;;
735;SDS011;352;48.626;9.238;2022-12-29T02:32:12;1.73;;;1.63;;
735;SDS011;352;48.626;9.238;2022-12-29T02:34:48;1.90;;;1.55;;
735;SDS011;352;48.626;9.238;2022-12-29T02:37:22;4.55;;;1.52;;
735;SDS011;352;48.626;9.238;2022-12-29T02:39:53;1.73;;;1.60;;
735;SDS011;352;48.626;9.238;2022-12-29T02:42:29;1.90;;;1.80;;
735;SDS011;352;48.626;9.238;2022-12-29T02:45:03;2.63;;;1.60;;
735;SDS011;352;48.626;9.238;2022-12-29T02:47:36;2.60;;;1.70;;
735;SDS011;352;48.626;9.238;2022-12-29T02:50:07;3.35;;;1.80;;
735;SDS011;352;48.626;9.238;2022-12-29T02:52:39;2.08;;;1.98;;
735;SDS011;352;48.626;9.238;2022-12-29T02:55:10;3.00;;;1.65;;
735;SDS011;352;48.626;9.238;2022-12-29T02:57:36;1.80;;;1.70;;
735;SDS011;352;48.626;9.238;2022-12-29T03:00:04;2.10;;;1.70;;
735;SDS011;352;48.626;9.238;2022-12-29T03:02:39;3.85;;;1.33;;
735;SDS011;352;48.626;9.238;2022-12-29T03:05:34;1.90;;;1.70;;
735;SDS011;352;48.626;9.238;2022-12-29T03:08:17;1.75;;;1.48;;
735;SDS011;352;48.626;9.238;2022-12-29T03:10:51;3.90;;;1.73;;
735;SDS011;352;48.626;9.238;2022-12-29T03:13:25;1.83;;;1.47;;
735;SDS011;352;48.626;9.238;2022-12-29T03:16:14;3.58;;;1.90;;
735;SDS011;352;48.626;9.238;2022-12-29T03:18:51;2.45;;;1.63;;
735;SDS011;352;48.626;9.238;2022-12-29T03:21:27;3.03;;;1.70;;
735;SDS011;352;48.626;9.238;2022-12-29T03:24:28;5.50;;;1.53;;
735;SDS011;352;48.626;9.238;2022-12-29T03:26:59;1.80;;;1.70;;
735;SDS011;352;48.626;9.238;2022-12-29T03:29:29;2.20;;;1.53;;
735;SDS011;352;48.626;9.238;2022-12-29T03:31:59;1.77;;;1.60;;
735;SDS011;352;48.626;9.238;2022-12-29T03:34:28;2.50;;;1.40;;
735;SDS011;352;48.626;9.238;2022-12-29T03:36:57;1.60;;;1.50;;
735;SDS011;352;48.626;9.238;2022-12-29T03:39:27;1.90;;;1.80;;
735;SDS011;352;48.626;9.238;2022-12-29T03:41:54;1.90;;;1.80;;
735;SDS011;352;48.626;9.238;2022-12-29T03:44:31;2.00;;;1.80;;
735;SDS011;352;48.626;9.238;2022-12-29T03:46:59;1.50;;;1.40;;
735;SDS011;352;48.626;9.238;2022-12-29T03:49:26;1.60;;;1.47;;
735;SDS011;352;48.626;9.238;2022-12-29T03:51:54;3.93;;;2.00;;
735;SDS011;352;48.626;9.238;2022-12-29T03:54:21;1.60;;;1.50;;
735;SDS011;352;48.626;9.238;2022-12-29T03:56:47;1.60;;;1.50;;
735;SDS011;352;48.626;9.238;2022-12-29T03:59:14;1.73;;;1.60;;
735;SDS011;352;48.626;9.238;2022-12-29T04:01:41;2.03;;;1.65;;
735;SDS011;352;48.626;9.238;2022-12-29T04:04:08;2.37;;;1.40;;
735;SDS011;352;48.626;9.238;2022-12-29T04:06:35;5.70;;;1.97;;
735;SDS011;352;48.626;9.238;2022-12-29T04:09:03;1.83;;;1.70;;
735;SDS011;352;48.626;9.238;2022-12-29T04:11:29;3.03;;;1.80;;
735;SDS011;352;48.626;9.238;2022-12-29T04:13:56;1.77;;;1.67;;
735;SDS011;352;48.626;9.238;2022-12-29T04:16:23;1.77;;;1.67;;
735;SDS011;352;48.626;9.238;2022-12-29T04:18:50;2.07;;;1.80;;
735;SDS011;352;48.626;9.238;2022-12-29T04:21:16;1.57;;;1.47;;
735;SDS011;352;48.626;9.238;2022-12-29T04:23:43;1.77;;;1.60;;
735;SDS011;352;48.626;9.238;2022-12-29T04:26:11;7.53;;;1.80;;
735;SDS011;352;48.626;9.238;2022-12-29T04:28:38;4.60;;;1.60;;
735;SDS011;352;48.626;9.238;2022-12-29T04:31:04;1.93;;;1.60;;
735;SDS011;352;48.626;9.238;2022-12-29T04:33:31;1.90;;;1.80;;
735;SDS011;352;48.626;9.238;2022-12-29T04:35:58;3.90;;;1.87;;
735;SDS011;352;48.626;9.238;2022-12-29T04:38:25;3.13;;;1.63;;
735;SDS011;352;48.626;9.238;2022-12-29T04:40:51;3.83;;;1.90;;
735;SDS011;352;48.626;9.238;2022-12-29T04:43:19;2.03;;;1.87;;
735;SDS011;352;48.626;9.238;2022-12-29T04:45:47;3.28;;;1.83;;
735;SDS011;352;48.626;9.238;2022-12-29T04:48:14;3.23;;;1.90;;
735;SDS011;352;48.626;9.238;2022-12-29T04:50:41;3.70;;;1.80;;
735;SDS011;352;48.626;9.238;2022-12-29T04:53:08;3.33;;;1.70;;
735;SDS011;352;48.626;9.238;2022-12-29T04:55:35;2.10;;;1.90;;
735;SDS011;352;48.626;9.238;2022-12-29T04:58:02;1.80;;;1.70;;
735;SDS011;352;48.626;9.238;2022-12-29T05:00:30;3.30;;;1.90;;
735;SDS011;352;48.626;9.238;2022-12-29T05:02:57;2.03;;;1.70;;
735;SDS011;352;48.626;9.238;2022-12-29T05:05:24;2.22;;;2.03;;
735;SDS011;352;48.626;9.238;2022-12-29T05:07:51;2.10;;;1.90;;
735;SDS011;352;48.626;9.238;2022-12-29T05:10:17;1.60;;;1.50;;
735;SDS011;352;48.626;9.238;2022-12-29T05:12:44;2.78;;;1.50;;
735;SDS011;352;48.626;9.238;2022-12-29T05:15:11;1.90;;;1.80;;
735;SDS011;352;48.626;9.238;2022-12-29T05:17:39;2.40;;;1.73;;
735;SDS011;352;48.626;9.238;2022-12-29T05:20:06;2.00;;;1.80;;
735;SDS011;352;48.626;9.238;2022-12-29T05:22:34;2.07;;;1.73;;
735;SDS011;352;48.626;9.238;2022-12-29T05:25:00;3.47;;;1.90;;
735;SDS011;352;48.626;9.238;2022-12-29T05:27:27;2.17;;;1.73;;
735;SDS011;352;48.626;9.238;2022-12-29T05:29:54;1.63;;;1.50;;
735;SDS011;352;48.626;9.238;2022-12-29T05:32:21;1.83;;;1.70;;
735;SDS011;352;48.626;9.238;2022-12-29T05:34:49;2.53;;;1.57;;
735;SDS011;352;48.626;9.238;2022-12-29T05:37:15;2.60;;;1.93;;
735;SDS011;352;48.626;9.238;2022-12-29T05:39:42;1.73;;;1.63;;
735;SDS011;352;48.626;9.238;2022-12-29T05:42:09;4.45;;;1.70;;
735;SDS011;352;48.626;9.238;2022-12-29T05:44:35;1.80;;;1.30;;
735;SDS011;352;48.626;9.238;2022-12-29T05:47:02;3.30;;;2.03;;
735;SDS011;352;48.626;9.238;2022-12-29T05:49:29;1.70;;;1.60;;
735;SDS011;352;48.626;9.238;2022-12-29T05:51:57;2.08;;;1.80;;
735;SDS011;352;48.626;9.238;2022-12-29T05:54:24;3.17;;;1.73;;
735;SDS011;352;48.626;9.238;2022-12-29T05:56:50;3.15;;;2.00;;
735;SDS011;352;48.626;9.238;2022-12-29T05:59:17;2.20;;;2.08;;
735;SDS011;352;48.626;9.238;2022-12-29T06:01:44;2.00;;;1.80;;
735;SDS011;352;48.626;9.238;2022-12-29T06:04:10;2.63;;;2.10;;
735;SDS011;352;48.626;9.238;2022-12-29T06:06:37;1.93;;;1.70;;
735;SDS011;352;48.626;9.238;2022-12-29T06:09:06;2.20;;;1.80;;
735;SDS011;352;48.626;9.238;2022-12-29T06:11:32;2.03;;;1.83;;
735;SDS011;352;48.626;9.238;2022-12-29T06:13:59;1.80;;;1.70;;
735;SDS011;352;48.626;9.238;2022-12-29T06:16:26;1.70;;;1.60;;
735;SDS011;352;48.626;9.238;2022-12-29T06:18:52;2.10;;;1.90;;
735;SDS011;352;48.626;9.238;2022-12-29T06:21:19;4.70;;;1.87;;
735;SDS011;352;48.626;9.238;2022-12-29T06:23:46;2.33;;;1.93;;
735;SDS011;352;48.626;9.238;2022-12-29T06:26:14;2.40;;;2.00;;
735;SDS011;352;48.626;9.238;2022-12-29T06:28:41;2.70;;;2.50;;
735;SDS011;352;48.626;9.238;2022-12-29T06:31:08;4.70;;;2.20;;
735;SDS011;352;48.626;9.238;2022-12-29T06:33:36;3.07;;;2.50;;
735;SDS011;352;48.626;9.238;2022-12-29T06:36:03;3.87;;;2.70;;
735;SDS011;352;48.626;9.238;2022-12-29T06:38:30;3.00;;;2.50;;
735;SDS011;352;48.626;9.238;2022-12-29T06:40:56;2.47;;;2.30;;
735;SDS011;352;48.626;9.238;2022-12-29T06:43:25;2.77;;;2.43;;
735;SDS011;352;48.626;9.238;2022-12-29T06:45:51;2.70;;;2.30;;
735;SDS011;352;48.626;9.238;2022-12-29T06:48:18;3.00;;;2.60;;
735;SDS011;352;48.626;9.238;2022-12-29T06:50:45;2.73;;;2.53;;
735;SDS011;352;48.626;9.238;2022-12-29T06:53:11;2.43;;;2.27;;
735;SDS011;352;48.626;9.238;2022-12-29T06:55:39;2.43;;;2.20;;
735;SDS011;352;48.626;9.238;2022-12-29T06:58:07;3.60;;;2.63;;
735;SDS011;352;48.626;9.238;2022-12-29T07:00:36;3.00;;;2.50;;
735;SDS011;352;48.626;9.238;2022-12-29T07:03:02;2.30;;;2.10;;
735;SDS011;352;48.626;9.238;2022-12-29T07:05:29;2.23;;;2.13;;
735;SDS011;352;48.626;9.238;2022-12-29T07:07:57;3.87;;;2.73;;
735;SDS011;352;48.626;9.238;2022-12-29T07:10:25;2.20;;;2.10;;
735;SDS011;352;48.626;9.238;2022-12-29T07:12:51;2.30;;;2.20;;
735;SDS011;352;48.626;9.238;2022-12-29T07:15:18;6.17;;;2.20;;
735;SDS011;352;48.626;9.238;2022-12-29T07:17:46;2.90;;;2.00;;
735;SDS011;352;48.626;9.238;2022-12-29T07:20:14;2.10;;;2.00;;
735;SDS011;352;48.626;9.238;2022-12-29T07:22:41;2.30;;;2.10;;
735;SDS011;352;48.626;9.238;2022-12-29T07:25:08;2.70;;;2.47;;
735;SDS011;352;48.626;9.238;2022-12-29T07:27:35;3.47;;;2.30;;
735;SDS011;352;48.626;9.238;2022-12-29T07:30:01;2.10;;;1.90;;
735;SDS011;352;48.626;9.238;2022-12-29T07:32:29;4.07;;;1.90;;
735;SDS011;352;48.626;9.238;2022-12-29T07:35:00;2.70;;;2.40;;
735;SDS011;352;48.626;9.238;2022-12-29T07:37:27;3.30;;;2.10;;
735;SDS011;352;48.626;9.238;2022-12-29T07:39:53;2.03;;;1.93;;
735;SDS011;352;48.626;9.238;2022-12-29T07:42:20;2.27;;;2.07;;
735;SDS011;352;48.626;9.238;2022-12-29T07:44:48;2.20;;;2.10;;
735;SDS011;352;48.626;9.238;2022-12-29T07:47:15;2.30;;;2.10;;
735;SDS011;352;48.626;9.238;2022-12-29T07:49:41;2.13;;;2.03;;
735;SDS011;352;48.626;9.238;2022-12-29T07:52:09;2.23;;;2.13;;
735;SDS011;352;48.626;9.238;2022-12-29T07:54:36;4.07;;;2.30;;
735;SDS011;352;48.626;9.238;2022-12-29T07:57:03;2.50;;;2.40;;
735;SDS011;352;48.626;9.238;2022-12-29T07:59:30;3.63;;;2.30;;
735;SDS011;352;48.626;9.238;2022-12-29T08:01:57;2.90;;;2.20;;
735;SDS011;352;48.626;9.238;2022-12-29T08:04:24;2.40;;;2.10;;
735;SDS011;352;48.626;9.238;2022-12-29T08:06:50;2.40;;;2.03;;
735;SDS011;352;48.626;9.238;2022-12-29T08:09:19;2.63;;;2.43;;
735;SDS011;352;48.626;9.238;2022-12-29T08:11:45;2.50;;;2.30;;
735;SDS011;352;48.626;9.238;2022-12-29T08:14:12;3.40;;;1.90;;
735;SDS011;352;48.626;9.238;2022-12-29T08:16:39;3.13;;;2.47;;
735;SDS011;352;48.626;9.238;2022-12-29T08:19:05;2.60;;;2.40;;
735;SDS011;352;48.626;9.238;2022-12-29T08:21:32;2.50;;;2.30;;
735;SDS011;352;48.626;9.238;2022-12-29T08:23:59;2.33;;;2.13;;
735;SDS011;352;48.626;9.238;2022-12-29T08:26:27;2.30;;;2.13;;
735;SDS011;352;48.626;9.238;2022-12-29T08:28:54;3.53;;;2.30;;
735;SDS011;352;48.626;9.238;2022-12-29T08:31:21;3.27;;;2.03;;
735;SDS011;352;48.626;9.238;2022-12-29T08:33:48;2.20;;;2.10;;
735;SDS011;352;48.626;9.238;2022-12-29T08:36:14;3.63;;;2.30;;
735;SDS011;352;48.626;9.238;2022-12-29T08:38:41;2.00;;;1.90;;
735;SDS011;352;48.626;9.238;2022-12-29T08:41:08;2.93;;;2.20;;
735;SDS011;352;48.626;9.238;2022-12-29T08:43:36;4.30;;;1.70;;
735;SDS011;352;48.626;9.238;2022-12-29T08:46:03;2.07;;;1.87;;
735;SDS011;352;48.626;9.238;2022-12-29T08:48:30;2.13;;;1.93;;
735;SDS011;352;48.626;9.238;2022-12-29T08:50:56;1.90;;;1.80;;
735;SDS011;352;48.626;9.238;2022-12-29T08:53:23;2.43;;;2.13;;
735;SDS011;352;48.626;9.238;2022-12-29T08:55:55;2.73;;;2.50;;
735;SDS011;352;48.626;9.238;2022-12-29T08:58:23;3.63;;;2.40;;
735;SDS011;352;48.626;9.238;2022-12-29T09:00:52;4.10;;;2.20;;
735;SDS011;352;48.626;9.238;2022-12-29T09:03:20;3.40;;;2.63;;
735;SDS011;352;48.626;9.238;2022-12-29T09:05:47;4.03;;;2.33;;
735;SDS011;352;48.626;9.238;2022-12-29T09:08:14;3.17;;;2.87;;
735;SDS011;352;48.626;9.238;2022-12-29T09:10:41;2.93;;;1.83;;
735;SDS011;352;48.626;9.238;2022-12-29T09:13:08;2.40;;;2.10;;
735;SDS011;352;48.626;9.238;2022-12-29T09:15:34;2.40;;;2.20;;
735;SDS011;352;48.626;9.238;2022-12-29T09:18:03;2.27;;;2.07;;
735;SDS011;352;48.626;9.238;2022-12-29T09:20:30;2.77;;;2.10;;
735;SDS011;352;48.626;9.238;2022-12-29T09:22:56;1.97;;;1.87;;
735;SDS011;352;48.626;9.238;2022-12-29T09:25:23;2.60;;;2.00;;
735;SDS011;352;48.626;9.238;2022-12-29T09:27:50;2.33;;;2.13;;
735;SDS011;352;48.626;9.238;2022-12-29T09:30:18;2.43;;;2.20;;
735;SDS011;352;48.626;9.238;2022-12-29T09:32:46;2.80;;;2.60;;
735;SDS011;352;48.626;9.238;2022-12-29T09:35:14;2.80;;;2.17;;
735;SDS011;352;48.626;9.238;2022-12-29T09:37:42;2.50;;;2.30;;
735;SDS011;352;48.626;9.238;2022-12-29T09:40:14;5.43;;;1.77;;
735;SDS011;352;48.626;9.238;2022-12-29T09:42:53;2.20;;;2.03;;
735;SDS011;352;48.626;9.238;2022-12-29T09:45:32;4.10;;;2.30;;
735;SDS011;352;48.626;9.238;2022-12-29T09:48:03;2.60;;;2.40;;
735;SDS011;352;48.626;9.238;2022-12-29T09:50:34;2.90;;;2.70;;
735;SDS011;352;48.626;9.238;2022-12-29T09:53:04;2.70;;;2.10;;
735;SDS011;352;48.626;9.238;2022-12-29T09:55:38;3.17;;;2.17;;
735;SDS011;352;48.626;9.238;2022-12-29T09:58:10;2.60;;;2.40;;
735;SDS011;352;48.626;9.238;2022-12-29T10:00:43;2.73;;;2.53;;
735;SDS011;352;48.626;9.238;2022-12-29T10:03:16;2.60;;;2.50;;
735;SDS011;352;48.626;9.238;2022-12-29T10:05:47;2.40;;;2.20;;
735;SDS011;352;48.626;9.238;2022-12-29T10:08:24;3.93;;;2.30;;
735;SDS011;352;48.626;9.238;2022-12-29T10:10:59;2.70;;;2.10;;
735;SDS011;352;48.626;9.238;2022-12-29T10:13:36;4.60;;;2.60;;
735;SDS011;352;48.626;9.238;2022-12-29T10:16:14;2.37;;;2.17;;
735;SDS011;352;48.626;9.238;2022-12-29T10:18:48;4.37;;;2.20;;
735;SDS011;352;48.626;9.238;2022-12-29T10:21:35;2.30;;;2.07;;
735;SDS011;352;48.626;9.238;2022-12-29T10:24:10;2.40;;;2.20;;
735;SDS011;352;48.626;9.238;2022-12-29T10:26:39;2.23;;;2.10;;
735;SDS011;352;48.626;9.238;2022-12-29T10:29:11;2.30;;;2.10;;
735;SDS011;352;48.626;9.238;2022-12-29T10:31:43;2.60;;;2.00;;
735;SDS011;352;48.626;9.238;2022-12-29T10:34:14;2.60;;;2.40;;
735;SDS011;352;48.626;9.238;2022-12-29T10:36:50;2.00;;;1.90;;
735;SDS011;352;48.626;9.238;2022-12-29T10:39:22;4.60;;;2.50;;
735;SDS011;352;48.626;9.238;2022-12-29T10:41:54;4.07;;;2.30;;
735;SDS011;352;48.626;9.238;2022-12-29T10:44:25;2.93;;;2.07;;
735;SDS011;352;48.626;9.238;2022-12-29T10:46:55;2.47;;;2.13;;
735;SDS011;352;48.626;9.238;2022-12-29T10:49:25;3.43;;;1.97;;
735;SDS011;352;48.626;9.238;2022-12-29T10:51:56;2.63;;;2.40;;
735;SDS011;352;48.626;9.238;2022-12-29T10:54:26;2.53;;;2.30;;
735;SDS011;352;48.626;9.238;2022-12-29T10:56:59;2.47;;;2.27;;
735;SDS011;352;48.626;9.238;2022-12-29T10:59:28;2.07;;;1.87;;
735;SDS011;352;48.626;9.238;2022-12-29T11:01:58;2.50;;;2.30;;
735;SDS011;352;48.626;9.238;2022-12-29T11:04:42;2.50;;;2.40;;
735;SDS011;352;48.626;9.238;2022-12-29T11:07:18;2.57;;;2.37;;
735;SDS011;352;48.626;9.238;2022-12-29T11:09:45;2.83;;;2.60;;
735;SDS011;352;48.626;9.238;2022-12-29T11:12:20;2.27;;;2.17;;
735;SDS011;352;48.626;9.238;2022-12-29T11:15:00;2.50;;;2.20;;
735;SDS011;352;48.626;9.238;2022-12-29T11:17:37;3.50;;;2.10;;
735;SDS011;352;48.626;9.238;2022-12-29T11:20:19;2.00;;;1.80;;
735;SDS011;352;48.626;9.238;2022-12-29T11:22:58;5.57;;;2.17;;
735;SDS011;352;48.626;9.238;2022-12-29T11:25:25;1.97;;;1.87;;
735;SDS011;352;48.626;9.238;2022-12-29T11:27:56;1.97;;;1.80;;
735;SDS011;352;48.626;9.238;2022-12-29T11:30:25;2.33;;;2.20;;
735;SDS011;352;48.626;9.238;2022-12-29T11:32:54;2.00;;;1.90;;
735;SDS011;352;48.626;9.238;2022-12-29T11:35:32;2.30;;;1.87;;
735;SDS011;352;48.626;9.238;2022-12-29T11:38:02;3.30;;;1.70;;
735;SDS011;352;48.626;9.238;2022-12-29T11:40:30;2.17;;;1.97;;
735;SDS011;352;48.626;9.238;2022-12-29T11:43:00;3.83;;;1.83;;
735;SDS011;352;48.626;9.238;2022-12-29T11:45:29;2.00;;;1.80;;
735;SDS011;352;48.626;9.238;2022-12-29T11:47:59;3.07;;;2.00;;
735;SDS011;352;48.626;9.238;2022-12-29T11:50:32;2.13;;;1.50;;
735;SDS011;352;48.626;9.238;2022-12-29T11:53:05;2.10;;;1.80;;
735;SDS011;352;48.626;9.238;2022-12-29T11:55:39;2.27;;;2.07;;
735;SDS011;352;48.626;9.238;2022-12-29T11:58:06;2.30;;;1.50;;
735;SDS011;352;48.626;9.238;2022-12-29T12:00:39;2.07;;;1.90;;
735;SDS011;352;48.626;9.238;2022-12-29T12:03:07;2.27;;;2.07;;
735;SDS011;352;48.626;9.238;2022-12-29T12:05:41;2.90;;;2.30;;
735;SDS011;352;48.626;9.238;2022-12-29T12:08:14;1.87;;;1.77;;
735;SDS011;352;48.626;9.238;2022-12-29T12:10:45;1.93;;;1.83;;
735;SDS011;352;48.626;9.238;2022-12-29T12:13:21;4.10;;;2.00;;
735;SDS011;352;48.626;9.238;2022-12-29T12:15:52;2.30;;;1.77;;
735;SDS011;352;48.626;9.238;2022-12-29T12:18:27;3.13;;;2.20;;
735;SDS011;352;48.626;9.238;2022-12-29T12:21:08;2.17;;;1.83;;
735;SDS011;352;48.626;9.238;2022-12-29T12:23:43;2.33;;;2.10;;
735;SDS011;352;48.626;9.238;2022-12-29T12:26:19;2.30;;;2.00;;
735;SDS011;352;48.626;9.238;2022-12-29T12:28:48;4.20;;;2.20;;
735;SDS011;352;48.626;9.238;2022-12-29T12:31:22;2.13;;;1.90;;
735;SDS011;352;48.626;9.238;2022-12-29T12:33:58;2.77;;;2.00;;
735;SDS011;352;48.626;9.238;2022-12-29T12:36:41;5.83;;;2.17;;
735;SDS011;352;48.626;9.238;2022-12-29T12:39:21;2.00;;;1.80;;
735;SDS011;352;48.626;9.238;2022-12-29T12:41:55;2.43;;;2.20;;
735;SDS011;352;48.626;9.238;2022-12-29T12:44:35;3.10;;;1.60;;
735;SDS011;352;48.626;9.238;2022-12-29T12:47:11;1.60;;;1.50;;
735;SDS011;352;48.626;9.238;2022-12-29T12:50:02;3.00;;;2.17;;
735;SDS011;352;48.626;9.238;2022-12-29T12:52:45;2.10;;;1.60;;
735;SDS011;352;48.626;9.238;2022-12-29T12:55:36;3.40;;;2.20;;
735;SDS011;352;48.626;9.238;2022-12-29T12:58:15;3.13;;;2.00;;
735;SDS011;352;48.626;9.238;2022-12-29T13:00:53;1.97;;;1.87;;
735;SDS011;352;48.626;9.238;2022-12-29T13:03:30;3.10;;;1.90;;
735;SDS011;352;48.626;9.238;2022-12-29T13:06:12;2.70;;;2.40;;
735;SDS011;352;48.626;9.238;2022-12-29T13:08:54;2.23;;;2.00;;
735;SDS011;352;48.626;9.238;2022-12-29T13:11:34;3.70;;;2.40;;
735;SDS011;352;48.626;9.238;2022-12-29T13:14:18;2.53;;;2.33;;
735;SDS011;352;48.626;9.238;2022-12-29T13:16:56;2.87;;;2.60;;
735;SDS011;352;48.626;9.238;2022-12-29T13:19:32;3.47;;;3.17;;
735;SDS011;352;48.626;9.238;2022-12-29T13:22:06;2.10;;;2.00;;
735;SDS011;352;48.626;9.238;2022-12-29T13:24:41;2.77;;;2.53;;
735;SDS011;352;48.626;9.238;2022-12-29T13:27:19;2.30;;;2.03;;
735;SDS011;352;48.626;9.238;2022-12-29T13:29:54;3.60;;;3.13;;
735;SDS011;352;48.626;9.238;2022-12-29T13:32:30;2.43;;;2.23;;
735;SDS011;352;48.626;9.238;2022-12-29T13:35:10;2.50;;;2.20;;
735;SDS011;352;48.626;9.238;2022-12-29T13:37:47;2.73;;;2.27;;
735;SDS011;352;48.626;9.238;2022-12-29T13:40:18;3.30;;;2.63;;
735;SDS011;352;48.626;9.238;2022-12-29T13:42:50;3.00;;;2.37;;
735;SDS011;352;48.626;9.238;2022-12-29T13:45:18;3.67;;;2.50;;
735;SDS011;352;48.626;9.238;2022-12-29T13:47:49;2.40;;;2.17;;
735;SDS011;352;48.626;9.238;2022-12-29T13:50:21;3.00;;;2.53;;
735;SDS011;352;48.626;9.238;2022-12-29T13:52:51;4.20;;;2.50;;
735;SDS011;352;48.626;9.238;2022-12-29T13:55:28;2.90;;;2.70;;
735;SDS011;352;48.626;9.238;2022-12-29T13:58:03;2.27;;;2.07;;
735;SDS011;352;48.626;9.238;2022-12-29T14:00:35;2.57;;;2.37;;
735;SDS011;352;48.626;9.238;2022-12-29T14:03:17;3.13;;;2.83;;
735;SDS011;352;48.626;9.238;2022-12-29T14:06:02;3.70;;;2.50;;
735;SDS011;352;48.626;9.238;2022-12-29T14:08:38;2.67;;;2.47;;
735;SDS011;352;48.626;9.238;2022-12-29T14:11:06;2.13;;;2.03;;
735;SDS011;352;48.626;9.238;2022-12-29T14:13:38;2.40;;;2.20;;
735;SDS011;352;48.626;9.238;2022-12-29T14:16:07;2.53;;;2.10;;
735;SDS011;352;48.626;9.238;2022-12-29T14:18:50;1.90;;;1.80;;
735;SDS011;352;48.626;9.238;2022-12-29T14:46:43;2.30;;;2.10;;
735;SDS011;352;48.626;9.238;2022-12-29T14:49:14;2.70;;;1.80;;
735;SDS011;352;48.626;9.238;2022-12-29T14:51:48;2.43;;;2.23;;
735;SDS011;352;48.626;9.238;2022-12-29T15:00:29;1.90;;;1.73;;
735;SDS011;352;48.626;9.238;2022-12-29T15:03:03;1.70;;;1.60;;
735;SDS011;352;48.626;9.238;2022-12-29T15:05:35;1.97;;;1.77;;
735;SDS011;352;48.626;9.238;2022-12-29T15:11:51;1.63;;;1.50;;
735;SDS011;352;48.626;9.238;2022-12-29T15:14:26;2.70;;;2.20;;
735;SDS011;352;48.626;9.238;2022-12-29T15:20:24;3.33;;;2.30;;
735;SDS011;352;48.626;9.238;2022-12-29T15:25:31;2.27;;;2.07;;
735;SDS011;352;48.626;9.238;2022-12-29T15:28:10;3.37;;;2.53;;
735;SDS011;352;48.626;9.238;2022-12-29T15:30:52;2.33;;;2.20;;
735;SDS011;352;48.626;9.238;2022-12-29T15:33:22;3.03;;;2.10;;
735;SDS011;352;48.626;9.238;2022-12-29T15:35:55;2.43;;;2.23;;
735;SDS011;352;48.626;9.238;2022-12-29T15:38:24;4.20;;;2.40;;
735;SDS011;352;48.626;9.238;2022-12-29T15:40:55;4.50;;;2.20;;
735;SDS011;352;48.626;9.238;2022-12-29T15:43:31;2.87;;;2.20;;
735;SDS011;352;48.626;9.238;2022-12-29T15:46:11;6.03;;;2.13;;
735;SDS011;352;48.626;9.238;2022-12-29T15:48:41;3.17;;;2.73;;
735;SDS011;352;48.626;9.238;2022-12-29T15:51:22;5.80;;;5.20;;
735;SDS011;352;48.626;9.238;2022-12-29T15:53:54;4.80;;;3.53;;
735;SDS011;352;48.626;9.238;2022-12-29T15:56:22;7.03;;;3.50;;
735;SDS011;352;48.626;9.238;2022-12-29T15:58:50;5.00;;;4.27;;
735;SDS011;352;48.626;9.238;2022-12-29T16:01:23;9.97;;;7.40;;
735;SDS011;352;48.626;9.238;2022-12-29T16:04:06;10.77;;;8.60;;
735;SDS011;352;48.626;9.238;2022-12-29T16:06:38;5.03;;;4.27;;
735;SDS011;352;48.626;9.238;2022-12-29T16:09:19;3.30;;;3.00;;
735;SDS011;352;48.626;9.238;2022-12-29T16:11:58;4.17;;;3.07;;
735;SDS011;352;48.626;9.238;2022-12-29T16:14:29;3.20;;;2.57;;
735;SDS011;352;48.626;9.238;2022-12-29T16:17:00;3.67;;;2.80;;
735;SDS011;352;48.626;9.238;2022-12-29T16:19:32;4.47;;;2.80;;
735;SDS011;352;48.626;9.238;2022-12-29T16:22:03;5.40;;;2.87;;
735;SDS011;352;48.626;9.238;2022-12-29T16:24:36;4.40;;;3.40;;
735;SDS011;352;48.626;9.238;2022-12-29T16:27:06;4.07;;;2.60;;
735;SDS011;352;48.626;9.238;2022-12-29T16:29:36;3.83;;;3.10;;
735;SDS011;352;48.626;9.238;2022-12-29T16:32:03;3.20;;;2.40;;
735;SDS011;352;48.626;9.238;2022-12-29T16:35:02;4.90;;;2.80;;
735;SDS011;352;48.626;9.238;2022-12-29T16:37:37;2.93;;;2.63;;
735;SDS011;352;48.626;9.238;2022-12-29T16:42:57;3.20;;;2.83;;
735;SDS011;352;48.626;9.238;2022-12-29T16:46:06;2.83;;;2.67;;
735;SDS011;352;48.626;9.238;2022-12-29T16:48:48;4.73;;;4.33;;
735;SDS011;352;48.626;9.238;2022-12-29T16:51:17;5.83;;;5.10;;
735;SDS011;352;48.626;9.238;2022-12-29T16:53:50;5.20;;;4.70;;
735;SDS011;352;48.626;9.238;2022-12-29T16:56:19;6.20;;;4.30;;
735;SDS011;352;48.626;9.238;2022-12-29T16:58:48;6.63;;;5.90;;
735;SDS011;352;48.626;9.238;2022-12-29T17:01:18;13.33;;;9.90;;